Violeta B — 5BEH4 — position and weather

sailwx.info

Track history (hours):
 
Tides and Currents Weather Stations Pressure Air Temp Water Temp Dewpoint Dewpoint Depression Visibility Wind Speed Wind Dir Waves Ship Positions

Violeta B

Last reported at 2017-Oct-19 01:57 UTC. Time now 2017-Oct-19 02:06 UTC.
Position N 28°09' W 015°25'.

Length 170 m; draft 8.1 m.

Type: Cargo ship. MMSI: 212417000.

Date/timePositionNaut miles runAvg speedWind from/ knotsBaromVisibWave heightAir tempDewpointWater temp
2017-Oct-19 01:57N 28°09' W 015°25'0 0.0
2017-Oct-19 01:30N 28°09' W 015°25'0 0.0
2017-Oct-19 01:00N 28°09' W 015°25'0 0.0
2017-Oct-19 00:30N 28°09' W 015°25'0 0.0
2017-Oct-19 00:00N 28°09' W 015°25'0 0.0
2017-Oct-18 23:30N 28°09' W 015°25'0 0.0
2017-Oct-18 23:00N 28°09' W 015°25'0 0.0
2017-Oct-18 22:30N 28°09' W 015°25'0 0.0
2017-Oct-18 22:00N 28°09' W 015°25'0 0.0
2017-Oct-18 21:30N 28°09' W 015°25'0 0.0
2017-Oct-18 21:00N 28°09' W 015°25'0 0.0
2017-Oct-18 20:30N 28°09' W 015°25'0 0.0
2017-Oct-18 20:00N 28°09' W 015°25'0 0.0
2017-Oct-18 19:30N 28°09' W 015°25'0 0.0
2017-Oct-18 19:00N 28°09' W 015°25'1 1.1
2017-Oct-18 18:30N 28°08' W 015°25'2 3.4
2017-Oct-18 18:00N 28°07' W 015°23'2 4.5
2017-Oct-18 17:30N 28°09' W 015°21'714.0
2017-Oct-18 17:00N 28°14' W 015°26'917.6
2017-Oct-18 16:30N 28°16' W 015°36'917.5
2017-Oct-18 16:00N 28°18' W 015°46'917.1
2017-Oct-18 15:30N 28°21' W 015°55'917.5
2017-Oct-18 15:00N 28°25' W 016°04'10 9.4
2017-Oct-18 13:58N 28°29' W 016°14'0 0.0
2017-Oct-18 13:28N 28°29' W 016°14'0 0.0
2017-Oct-18 12:55N 28°29' W 016°14'0 0.0
2017-Oct-18 12:13N 28°29' W 016°14'0 0.0
2017-Oct-18 11:43N 28°29' W 016°14'0 0.0
2017-Oct-18 11:28N 28°29' W 016°14'0 0.0
2017-Oct-18 10:58N 28°29' W 016°14'0 0.0
2017-Oct-18 09:43N 28°29' W 016°14'0 0.0
2017-Oct-18 09:28N 28°29' W 016°14'0 0.0
2017-Oct-18 06:04N 28°29' W 016°14'0 0.1
2017-Oct-18 05:58N 28°29' W 016°14'0 0.2
2017-Oct-18 05:30N 28°29' W 016°14'2 3.2
2017-Oct-18 05:01N 28°28' W 016°13'5 9.0
2017-Oct-18 04:30N 28°30' W 016°08'817.0
2017-Oct-18 04:00N 28°33' W 015°59'816.8
2017-Oct-18 03:31N 28°37' W 015°51'816.7
2017-Oct-18 03:01N 28°42' W 015°43'816.9
2017-Oct-18 02:30N 28°47' W 015°35'1017.0
2017-Oct-18 01:56N 28°54' W 015°27'917.3
2017-Oct-18 01:24N 29°00' W 015°19'717.4
2017-Oct-18 01:00N 29°04' W 015°13'36617.2
2017-Oct-17 03:40N 33°05' W 009°50'1716.9
2017-Oct-17 02:39N 33°16' W 009°35'317.3
2017-Oct-17 02:29N 33°18' W 009°32'817.2
2017-Oct-17 01:59N 33°23' W 009°25'1017.2
2017-Oct-17 01:26N 33°30' W 009°16'7017.2
2017-Oct-16 21:24N 34°15' W 008°13'717.2
2017-Oct-16 21:00N 34°20' W 008°06'15816.9
2017-Oct-16 11:41N 35°57' W 005°35'417.3
2017-Oct-16 11:28N 35°58' W 005°31'817.0
2017-Oct-16 11:01N 36°00' W 005°22'816.1
2017-Oct-16 10:30N 36°02' W 005°12'21316.4
2017-Oct-15 21:32N 37°15' W 001°02'117.6
2017-Oct-15 21:30N 37°15' W 001°01'917.4
2017-Oct-15 21:00N 37°21' W 000°53'917.3
2017-Oct-15 20:30N 37°26' W 000°45'1317.5
2017-Oct-15 19:47N 37°35' W 000°33'517.7
2017-Oct-15 19:31N 37°39' W 000°31'917.2
2017-Oct-15 18:58N 37°48' W 000°28'817.0
2017-Oct-15 18:30N 37°56' W 000°27'817.1
2017-Oct-15 18:01N 38°04' W 000°24'191 4.2
2017-Oct-13 21:08N 40°49' E 001°39'218.9
2017-Oct-13 21:00N 40°51' E 001°42'1319.1
2017-Oct-13 20:21N 41°01' E 001°52'918.8
2017-Oct-13 19:51N 41°08' E 002°00'718.9
2017-Oct-13 19:30N 41°13' E 002°06'6 0.2
2017-Oct-12 04:07N 41°18' E 002°11'910.6
2017-Oct-12 03:15N 41°11' E 002°03'416.7
2017-Oct-12 03:00N 41°09' E 001°59'917.2
2017-Oct-12 02:30N 41°04' E 001°49'816.9
2017-Oct-12 02:01N 40°59' E 001°40'192 4.7
2017-Oct-10 09:11N 38°12' W 000°23'716.1
2017-Oct-10 08:46N 38°05' W 000°23'416.2
2017-Oct-10 08:30N 38°01' W 000°24'816.4
2017-Oct-10 08:00N 37°53' W 000°25'816.3
2017-Oct-10 07:30N 37°45' W 000°28'816.2
2017-Oct-10 07:00N 37°37' W 000°29'815.0
2017-Oct-10 06:30N 37°31' W 000°35'816.3
2017-Oct-10 06:00N 37°26' W 000°43'916.3
2017-Oct-10 05:27N 37°19' W 000°50'816.3
2017-Oct-10 04:59N 37°14' W 000°58'816.1
2017-Oct-10 04:30N 37°09' W 001°05'23816.0
2017-Oct-09 13:35N 35°53' W 005°46'113.3
2017-Oct-09 13:29N 35°53' W 005°48'714.2
2017-Oct-09 13:00N 35°51' W 005°56'814.9
2017-Oct-09 12:29N 35°48' W 006°05'815.1
2017-Oct-09 11:57N 35°44' W 006°13'1215.2
2017-Oct-09 11:09N 35°37' W 006°25'216.7
2017-Oct-09 11:00N 35°36' W 006°28'917.3
2017-Oct-09 10:30N 35°31' W 006°36'816.8
2017-Oct-09 10:00N 35°26' W 006°45'816.5
2017-Oct-09 09:30N 35°21' W 006°53'816.8
2017-Oct-09 09:00N 35°16' W 007°01'816.9
2017-Oct-09 08:30N 35°11' W 007°10'816.8
2017-Oct-09 08:00N 35°06' W 007°18'816.8
2017-Oct-09 07:30N 35°01' W 007°26'1016.9
2017-Oct-09 06:56N 34°55' W 007°36'816.7
2017-Oct-09 06:28N 34°51' W 007°44'3316.7
2017-Oct-09 04:30N 34°32' W 008°16'816.6
2017-Oct-09 04:00N 34°27' W 008°24'816.7
2017-Oct-09 03:30N 34°22' W 008°32'  
Track history (hours):
 
Tides and Currents Weather Stations Pressure Air Temp Water Temp Dewpoint Dewpoint Depression Visibility Wind Speed Wind Dir Waves Ship Positions

Violeta B

Last reported at 2017-Oct-19 01:57 UTC. Time now 2017-Oct-19 02:06 UTC.
Position N 28°09' W 015°25'.

Length 170 m; draft 8.1 m.

Type: Cargo ship. MMSI: 212417000.

Date/timePositionNaut miles runAvg speedWind from/ knotsBaromVisibWave heightAir tempDewpointWater temp
2017-Oct-19 01:57N 28°09' W 015°25'0 0.0
2017-Oct-19 01:30N 28°09' W 015°25'0 0.0
2017-Oct-19 01:00N 28°09' W 015°25'0 0.0
2017-Oct-19 00:30N 28°09' W 015°25'0 0.0
2017-Oct-19 00:00N 28°09' W 015°25'0 0.0
2017-Oct-18 23:30N 28°09' W 015°25'0 0.0
2017-Oct-18 23:00N 28°09' W 015°25'0 0.0
2017-Oct-18 22:30N 28°09' W 015°25'0 0.0
2017-Oct-18 22:00N 28°09' W 015°25'0 0.0
2017-Oct-18 21:30N 28°09' W 015°25'0 0.0
2017-Oct-18 21:00N 28°09' W 015°25'0 0.0
2017-Oct-18 20:30N 28°09' W 015°25'0 0.0
2017-Oct-18 20:00N 28°09' W 015°25'0 0.0
2017-Oct-18 19:30N 28°09' W 015°25'0 0.0
2017-Oct-18 19:00N 28°09' W 015°25'1 1.1
2017-Oct-18 18:30N 28°08' W 015°25'2 3.4
2017-Oct-18 18:00N 28°07' W 015°23'2 4.5
2017-Oct-18 17:30N 28°09' W 015°21'714.0
2017-Oct-18 17:00N 28°14' W 015°26'917.6
2017-Oct-18 16:30N 28°16' W 015°36'917.5
2017-Oct-18 16:00N 28°18' W 015°46'917.1
2017-Oct-18 15:30N 28°21' W 015°55'917.5
2017-Oct-18 15:00N 28°25' W 016°04'10 9.4
2017-Oct-18 13:58N 28°29' W 016°14'0 0.0
2017-Oct-18 13:28N 28°29' W 016°14'0 0.0
2017-Oct-18 12:55N 28°29' W 016°14'0 0.0
2017-Oct-18 12:13N 28°29' W 016°14'0 0.0
2017-Oct-18 11:43N 28°29' W 016°14'0 0.0
2017-Oct-18 11:28N 28°29' W 016°14'0 0.0
2017-Oct-18 10:58N 28°29' W 016°14'0 0.0
2017-Oct-18 09:43N 28°29' W 016°14'0 0.0
2017-Oct-18 09:28N 28°29' W 016°14'0 0.0
2017-Oct-18 06:04N 28°29' W 016°14'0 0.1
2017-Oct-18 05:58N 28°29' W 016°14'0 0.2
2017-Oct-18 05:30N 28°29' W 016°14'2 3.2
2017-Oct-18 05:01N 28°28' W 016°13'5 9.0
2017-Oct-18 04:30N 28°30' W 016°08'817.0
2017-Oct-18 04:00N 28°33' W 015°59'816.8
2017-Oct-18 03:31N 28°37' W 015°51'816.7
2017-Oct-18 03:01N 28°42' W 015°43'816.9
2017-Oct-18 02:30N 28°47' W 015°35'1017.0
2017-Oct-18 01:56N 28°54' W 015°27'917.3
2017-Oct-18 01:24N 29°00' W 015°19'717.4
2017-Oct-18 01:00N 29°04' W 015°13'36617.2
2017-Oct-17 03:40N 33°05' W 009°50'1716.9
2017-Oct-17 02:39N 33°16' W 009°35'317.3
2017-Oct-17 02:29N 33°18' W 009°32'817.2
2017-Oct-17 01:59N 33°23' W 009°25'1017.2
2017-Oct-17 01:26N 33°30' W 009°16'7017.2
2017-Oct-16 21:24N 34°15' W 008°13'717.2
2017-Oct-16 21:00N 34°20' W 008°06'15816.9
2017-Oct-16 11:41N 35°57' W 005°35'417.3
2017-Oct-16 11:28N 35°58' W 005°31'817.0
2017-Oct-16 11:01N 36°00' W 005°22'816.1
2017-Oct-16 10:30N 36°02' W 005°12'21316.4
2017-Oct-15 21:32N 37°15' W 001°02'117.6
2017-Oct-15 21:30N 37°15' W 001°01'917.4
2017-Oct-15 21:00N 37°21' W 000°53'917.3
2017-Oct-15 20:30N 37°26' W 000°45'1317.5
2017-Oct-15 19:47N 37°35' W 000°33'517.7
2017-Oct-15 19:31N 37°39' W 000°31'917.2
2017-Oct-15 18:58N 37°48' W 000°28'817.0
2017-Oct-15 18:30N 37°56' W 000°27'817.1
2017-Oct-15 18:01N 38°04' W 000°24'191 4.2
2017-Oct-13 21:08N 40°49' E 001°39'218.9
2017-Oct-13 21:00N 40°51' E 001°42'1319.1
2017-Oct-13 20:21N 41°01' E 001°52'918.8
2017-Oct-13 19:51N 41°08' E 002°00'718.9
2017-Oct-13 19:30N 41°13' E 002°06'6 0.2
2017-Oct-12 04:07N 41°18' E 002°11'910.6
2017-Oct-12 03:15N 41°11' E 002°03'416.7
2017-Oct-12 03:00N 41°09' E 001°59'917.2
2017-Oct-12 02:30N 41°04' E 001°49'816.9
2017-Oct-12 02:01N 40°59' E 001°40'192 4.7
2017-Oct-10 09:11N 38°12' W 000°23'716.1
2017-Oct-10 08:46N 38°05' W 000°23'416.2
2017-Oct-10 08:30N 38°01' W 000°24'816.4
2017-Oct-10 08:00N 37°53' W 000°25'816.3
2017-Oct-10 07:30N 37°45' W 000°28'816.2
2017-Oct-10 07:00N 37°37' W 000°29'815.0
2017-Oct-10 06:30N 37°31' W 000°35'816.3
2017-Oct-10 06:00N 37°26' W 000°43'916.3
2017-Oct-10 05:27N 37°19' W 000°50'816.3
2017-Oct-10 04:59N 37°14' W 000°58'816.1
2017-Oct-10 04:30N 37°09' W 001°05'23816.0
2017-Oct-09 13:35N 35°53' W 005°46'113.3
2017-Oct-09 13:29N 35°53' W 005°48'714.2
2017-Oct-09 13:00N 35°51' W 005°56'814.9
2017-Oct-09 12:29N 35°48' W 006°05'815.1
2017-Oct-09 11:57N 35°44' W 006°13'1215.2
2017-Oct-09 11:09N 35°37' W 006°25'216.7
2017-Oct-09 11:00N 35°36' W 006°28'917.3
2017-Oct-09 10:30N 35°31' W 006°36'816.8
2017-Oct-09 10:00N 35°26' W 006°45'816.5
2017-Oct-09 09:30N 35°21' W 006°53'816.8
2017-Oct-09 09:00N 35°16' W 007°01'816.9
2017-Oct-09 08:30N 35°11' W 007°10'816.8
2017-Oct-09 08:00N 35°06' W 007°18'816.8
2017-Oct-09 07:30N 35°01' W 007°26'1016.9
2017-Oct-09 06:56N 34°55' W 007°36'816.7
2017-Oct-09 06:28N 34°51' W 007°44'3316.7
2017-Oct-09 04:30N 34°32' W 008°16'816.6
2017-Oct-09 04:00N 34°27' W 008°24'816.7
2017-Oct-09 03:30N 34°22' W 008°32'  

Dump ship's entire track history